Time;durP1;ratioP1;P1;durP2;ratioP2;P2;SDS_P1;SDS_P2;PMS_P1;PMS_P2;Temp;Humidity;BMP_temperature;BMP_pressure;BME280_temperature;BME280_humidity;BME280_pressure;Samples;Min_cycle;Max_cycle;Signal;HPM_P1;HPM_P2
2022/08/22 00:00:18;;;;;;;6.30;3.80;;;19.80;99.90;;;;;;5052497;28;20439;-78
2022/08/22 00:02:59;;;;;;;6.37;4.10;;;19.80;99.90;;;;;;5037856;28;20542;-76
2022/08/22 00:06:11;;;;;;;7.47;4.47;;;19.70;99.90;;;;;;5051652;28;20537;-77
2022/08/22 00:08:55;;;;;;;7.00;3.33;;;19.70;99.90;;;;;;5033860;28;20454;-77
2022/08/22 00:11:36;;;;;;;6.97;3.77;;;19.70;99.90;;;;;;5035625;28;20537;-77
2022/08/22 00:14:12;;;;;;;7.57;3.57;;;19.70;99.90;;;;;;5036040;28;20445;-78
2022/08/22 00:16:49;;;;;;;6.27;3.93;;;19.60;99.90;;;;;;5052124;28;20466;-78
2022/08/22 00:19:30;;;;;;;9.23;4.70;;;19.60;99.90;;;;;;5053274;28;20442;-78
2022/08/22 00:22:03;;;;;;;8.50;4.20;;;19.60;99.90;;;;;;5036994;28;20485;-78
2022/08/22 00:24:39;;;;;;;7.00;3.90;;;19.50;99.90;;;;;;5052971;28;20454;-77
2022/08/22 00:27:12;;;;;;;6.10;4.17;;;19.50;99.90;;;;;;5038661;28;20574;-79
2022/08/22 00:29:44;;;;;;;10.93;5.17;;;19.50;99.90;;;;;;5056440;28;20830;-79
2022/08/22 00:32:18;;;;;;;7.20;3.63;;;19.50;99.90;;;;;;5039775;28;20451;-78
2022/08/22 00:34:53;;;;;;;7.40;4.30;;;19.50;99.90;;;;;;5038335;28;20423;-78
2022/08/22 00:37:25;;;;;;;6.73;4.47;;;19.40;99.90;;;;;;5037642;28;20466;-78
2022/08/22 00:40:02;;;;;;;8.57;3.80;;;19.40;99.90;;;;;;5039862;28;20423;-78
2022/08/22 00:43:07;;;;;;;11.43;3.77;;;19.40;99.90;;;;;;5037352;28;20461;-78
2022/08/22 00:45:52;;;;;;;8.37;4.07;;;19.40;99.90;;;;;;5053263;28;20505;-77
2022/08/22 00:49:05;;;;;;;6.70;3.67;;;19.40;99.90;;;;;;5040147;28;20486;-79
2022/08/22 00:52:05;;;;;;;9.97;4.20;;;19.40;99.90;;;;;;5034787;28;20534;-79
2022/08/22 00:54:48;;;;;;;7.83;3.60;;;19.30;99.90;;;;;;5036942;28;20439;-79
2022/08/22 00:57:31;;;;;;;6.27;3.77;;;19.30;99.90;;;;;;5053298;28;20466;-79
2022/08/22 01:00:16;;;;;;;6.97;4.60;;;19.30;99.90;;;;;;5035753;28;20814;-78
2022/08/22 01:03:09;;;;;;;9.70;4.40;;;19.30;99.90;;;;;;5036956;28;20439;-80
2022/08/22 01:05:51;;;;;;;9.17;4.50;;;19.20;99.90;;;;;;5033492;28;20446;-78
2022/08/22 01:08:34;;;;;;;8.07;4.00;;;19.20;99.90;;;;;;5034415;28;20489;-77
2022/08/22 01:11:16;;;;;;;7.10;3.70;;;19.20;99.90;;;;;;5035119;28;20897;-79
2022/08/22 01:13:59;;;;;;;9.37;4.63;;;19.20;99.90;;;;;;5039313;28;20426;-79
2022/08/22 01:16:55;;;;;;;10.33;5.20;;;19.10;99.90;;;;;;5039317;28;20491;-77
2022/08/22 01:20:26;;;;;;;7.03;4.40;;;19.10;99.90;;;;;;5052467;28;20454;-78
2022/08/22 01:23:36;;;;;;;9.20;4.00;;;19.10;99.90;;;;;;4975890;28;20452;-78
2022/08/22 01:26:38;;;;;;;8.57;3.80;;;19.00;99.90;;;;;;5051449;28;21094;-77
2022/08/22 01:30:02;;;;;;;9.37;5.17;;;19.00;99.90;;;;;;5036649;28;20444;-79
2022/08/22 01:33:14;;;;;;;9.77;4.43;;;19.00;99.90;;;;;;5035313;28;20449;-78
2022/08/22 01:36:03;;;;;;;7.00;4.17;;;19.00;99.90;;;;;;5036077;28;20451;-78
2022/08/22 01:38:51;;;;;;;5.47;4.17;;;19.00;99.90;;;;;;5053068;28;20506;-79
2022/08/22 01:41:35;;;;;;;7.83;4.60;;;19.00;99.90;;;;;;5036981;28;21023;-79
2022/08/22 01:44:20;;;;;;;8.23;4.30;;;19.00;99.90;;;;;;5037250;28;20415;-78
2022/08/22 01:46:58;;;;;;;6.23;3.73;;;19.00;99.90;;;;;;5037906;28;20992;-80
2022/08/22 01:49:31;;;;;;;7.70;4.43;;;18.90;99.90;;;;;;5039842;28;20511;-79
2022/08/22 01:52:06;;;;;;;8.00;4.50;;;18.90;99.90;;;;;;5052714;28;20443;-80
2022/08/22 01:54:42;;;;;;;10.00;4.97;;;18.90;99.90;;;;;;5053691;28;20478;-79
2022/08/22 01:57:13;;;;;;;10.67;5.17;;;18.90;99.90;;;;;;5036975;28;20520;-77
2022/08/22 01:59:43;;;;;;;6.93;3.90;;;18.90;99.90;;;;;;5036788;28;20450;-79
2022/08/22 02:02:25;;;;;;;7.50;4.70;;;18.90;99.90;;;;;;5035154;28;20446;-78
2022/08/22 02:05:00;;;;;;;9.43;5.90;;;18.80;99.90;;;;;;5036970;28;20781;-80
2022/08/22 02:07:34;;;;;;;12.47;5.00;;;18.80;99.90;;;;;;5036416;28;20475;-78
2022/08/22 02:10:11;;;;;;;6.03;4.57;;;18.80;99.90;;;;;;5036565;28;20912;-77
2022/08/22 02:12:45;;;;;;;7.87;4.67;;;18.80;99.90;;;;;;5036826;28;20439;-79
2022/08/22 02:15:21;;;;;;;7.40;4.27;;;18.80;99.90;;;;;;5054018;28;20453;-79
2022/08/22 02:17:59;;;;;;;11.07;5.90;;;18.80;99.90;;;;;;5038328;28;20959;-78
2022/08/22 02:20:32;;;;;;;7.50;4.43;;;18.80;99.90;;;;;;5053708;28;20886;-78
2022/08/22 02:23:08;;;;;;;6.13;4.20;;;18.80;99.90;;;;;;5038574;28;20925;-79
2022/08/22 02:25:57;;;;;;;6.70;4.50;;;18.80;99.90;;;;;;5037751;28;20442;-78
2022/08/22 02:28:37;;;;;;;9.33;5.30;;;18.70;99.90;;;;;;5035223;28;20485;-79
2022/08/22 02:31:23;;;;;;;9.90;4.60;;;18.70;99.90;;;;;;5050329;28;20802;-76
2022/08/22 02:33:55;;;;;;;10.23;5.13;;;18.70;99.90;;;;;;5035141;28;20443;-80
2022/08/22 02:36:28;;;;;;;7.17;4.63;;;18.70;99.90;;;;;;5034954;28;20423;-77
2022/08/22 02:39:06;;;;;;;7.07;4.83;;;18.60;99.90;;;;;;5037985;28;20501;-78
2022/08/22 02:41:44;;;;;;;7.07;4.73;;;18.60;99.90;;;;;;5056879;28;20441;-78
2022/08/22 02:44:19;;;;;;;8.67;5.20;;;18.60;99.90;;;;;;5055608;28;20812;-78
2022/08/22 02:46:53;;;;;;;9.43;5.50;;;18.60;99.90;;;;;;5041114;28;20581;-78
2022/08/22 02:49:28;;;;;;;11.93;6.17;;;18.60;99.90;;;;;;5041138;28;20415;-78
2022/08/22 02:52:05;;;;;;;8.10;5.40;;;18.60;99.90;;;;;;5042110;28;20469;-78
2022/08/22 02:54:38;;;;;;;9.30;5.23;;;18.60;99.90;;;;;;5056092;28;20443;-79
2022/08/22 02:57:11;;;;;;;7.63;5.10;;;18.50;99.90;;;;;;5040310;28;20461;-78
2022/08/22 03:00:08;;;;;;;7.70;5.00;;;18.50;99.90;;;;;;5054295;28;20969;-77
2022/08/22 03:03:03;;;;;;;8.10;5.20;;;18.50;99.90;;;;;;5037175;28;20451;-78
2022/08/22 03:05:49;;;;;;;6.70;5.03;;;18.50;99.90;;;;;;5040168;28;20449;-78
2022/08/22 03:08:23;;;;;;;7.57;5.80;;;18.40;99.90;;;;;;5037795;28;20479;-79
2022/08/22 03:11:03;;;;;;;8.00;5.40;;;18.40;99.90;;;;;;5053982;28;20538;-77
2022/08/22 03:13:46;;;;;;;10.40;6.17;;;18.40;99.90;;;;;;5037858;28;20434;-77
2022/08/22 03:16:21;;;;;;;9.20;6.07;;;18.40;99.90;;;;;;5053971;28;20956;-77
2022/08/22 03:18:58;;;;;;;8.13;5.53;;;18.40;99.90;;;;;;5054055;28;20469;-77
2022/08/22 03:21:32;;;;;;;9.03;6.20;;;18.30;99.90;;;;;;5040127;28;20461;-78
2022/08/22 03:24:07;;;;;;;8.57;5.80;;;18.30;99.90;;;;;;5041377;28;20462;-78
2022/08/22 03:26:46;;;;;;;8.00;5.83;;;18.30;99.90;;;;;;5056430;28;20501;-78
2022/08/22 03:29:20;;;;;;;10.40;5.37;;;18.30;99.90;;;;;;5056161;28;20431;-78
2022/08/22 03:32:12;;;;;;;8.43;6.83;;;18.30;99.90;;;;;;5037592;28;20447;-79
2022/08/22 03:34:57;;;;;;;6.70;5.60;;;18.30;99.90;;;;;;5036961;28;20439;-78
2022/08/22 03:37:36;;;;;;;10.80;6.80;;;18.20;99.90;;;;;;5036912;28;20526;-77
2022/08/22 03:40:20;;;;;;;8.47;5.40;;;18.20;99.90;;;;;;5036064;28;20435;-77
2022/08/22 03:43:26;;;;;;;7.07;5.33;;;18.20;99.90;;;;;;5037591;28;20534;-77
2022/08/22 03:46:38;;;;;;;8.70;5.50;;;18.20;99.90;;;;;;5037870;28;20473;-77
2022/08/22 03:49:33;;;;;;;10.47;5.57;;;18.10;99.90;;;;;;5036246;28;20494;-78
2022/08/22 03:52:22;;;;;;;7.23;6.10;;;18.10;99.90;;;;;;5036416;28;20454;-78
2022/08/22 03:55:10;;;;;;;8.93;6.13;;;18.10;99.90;;;;;;5056102;28;20497;-78
2022/08/22 03:58:19;;;;;;;8.27;5.40;;;18.00;99.90;;;;;;5036365;28;20553;-78
2022/08/22 04:01:38;;;;;;;7.27;5.70;;;18.00;99.90;;;;;;5027131;28;20466;-78
2022/08/22 04:04:38;;;;;;;8.07;5.80;;;18.00;99.90;;;;;;5002373;28;20459;-78
2022/08/22 04:07:45;;;;;;;10.57;5.97;;;17.90;99.90;;;;;;5010968;28;20570;-77
2022/08/22 04:11:06;;;;;;;9.40;5.87;;;17.90;99.90;;;;;;5013166;28;20465;-77
2022/08/22 04:13:53;;;;;;;12.03;7.17;;;17.80;99.90;;;;;;5035437;28;20443;-77
2022/08/22 04:16:54;;;;;;;7.23;5.30;;;17.80;99.90;;;;;;5018658;28;21029;-77
2022/08/22 04:19:49;;;;;;;8.47;6.80;;;17.80;99.90;;;;;;5036038;28;20430;-78
2022/08/22 04:22:33;;;;;;;10.17;6.27;;;17.80;99.90;;;;;;5035908;28;20929;-77
2022/08/22 04:25:08;;;;;;;9.30;6.07;;;17.80;99.90;;;;;;5037710;28;20524;-77
2022/08/22 04:27:43;;;;;;;9.67;6.77;;;17.70;99.90;;;;;;5037170;28;20521;-78
2022/08/22 04:30:24;;;;;;;7.67;6.77;;;17.70;99.90;;;;;;5039747;28;20481;-77
2022/08/22 04:33:01;;;;;;;9.63;6.50;;;17.70;99.90;;;;;;5039861;28;20474;-78
2022/08/22 04:35:32;;;;;;;9.80;7.13;;;17.70;99.90;;;;;;5036050;28;20442;-77
2022/08/22 04:38:06;;;;;;;8.33;6.63;;;17.60;99.90;;;;;;5038195;28;20494;-77
2022/08/22 04:40:43;;;;;;;11.67;6.87;;;17.60;99.90;;;;;;5038452;28;20423;-78
2022/08/22 04:43:17;;;;;;;9.13;6.90;;;17.60;99.90;;;;;;5038727;28;20461;-78
2022/08/22 04:45:54;;;;;;;14.10;8.80;;;17.60;99.90;;;;;;5036204;28;20442;-78
2022/08/22 04:48:33;;;;;;;13.43;8.00;;;17.60;99.90;;;;;;5036806;28;20546;-77
2022/08/22 04:51:05;;;;;;;12.57;7.30;;;17.60;99.90;;;;;;5035244;28;20558;-78
2022/08/22 04:54:06;;;;;;;10.50;7.83;;;17.60;99.90;;;;;;5038787;28;20530;-79
2022/08/22 04:56:44;;;;;;;12.03;8.37;;;17.50;99.90;;;;;;5037414;28;20569;-78
2022/08/22 04:59:16;;;;;;;14.70;8.40;;;17.50;99.90;;;;;;5038048;28;20447;-77
2022/08/22 05:01:47;;;;;;;8.67;7.87;;;17.50;99.90;;;;;;5036518;28;20408;-76
2022/08/22 05:04:24;;;;;;;11.73;8.40;;;17.50;99.90;;;;;;5035739;28;20921;-77
2022/08/22 05:07:05;;;;;;;9.33;7.23;;;17.50;99.90;;;;;;5035136;28;20520;-77
2022/08/22 05:09:38;;;;;;;12.50;8.00;;;17.50;99.90;;;;;;5036305;28;20552;-77
2022/08/22 05:12:13;;;;;;;14.40;7.70;;;17.50;99.90;;;;;;5036065;28;20864;-78
2022/08/22 05:14:45;;;;;;;9.87;7.80;;;17.50;99.90;;;;;;5035623;28;20504;-77
2022/08/22 05:17:17;;;;;;;9.63;8.23;;;17.60;99.90;;;;;;5034935;28;20478;-77
2022/08/22 05:19:53;;;;;;;11.47;8.70;;;17.60;99.90;;;;;;5036970;28;20439;-76
2022/08/22 05:22:26;;;;;;;8.97;8.07;;;17.60;99.90;;;;;;5036421;28;20465;-78
2022/08/22 05:24:59;;;;;;;13.57;8.20;;;17.60;99.90;;;;;;5034869;28;20524;-79
2022/08/22 05:27:33;;;;;;;13.40;8.67;;;17.60;99.90;;;;;;5035765;28;20467;-77
2022/08/22 05:30:06;;;;;;;12.00;7.70;;;17.70;99.90;;;;;;5034796;28;20960;-76
2022/08/22 05:32:51;;;;;;;11.93;8.13;;;17.70;99.90;;;;;;5037762;28;20967;-78
2022/08/22 05:35:31;;;;;;;9.70;7.40;;;17.70;99.90;;;;;;5037752;28;20542;-79
2022/08/22 05:38:01;;;;;;;11.03;7.67;;;17.70;99.90;;;;;;5036998;28;20512;-79
2022/08/22 05:40:31;;;;;;;11.00;9.30;;;17.80;99.90;;;;;;5038762;28;20534;-77
2022/08/22 05:42:59;;;;;;;11.43;7.83;;;17.80;99.90;;;;;;5035027;28;20437;-78
2022/08/22 05:45:28;;;;;;;10.90;8.20;;;17.80;99.90;;;;;;5034148;28;20451;-78
2022/08/22 05:48:03;;;;;;;9.50;8.20;;;17.80;99.90;;;;;;5034953;28;20469;-78
2022/08/22 05:50:38;;;;;;;10.27;7.70;;;17.90;99.90;;;;;;5035695;28;20409;-78
2022/08/22 05:53:10;;;;;;;11.37;7.83;;;17.90;99.90;;;;;;5036554;28;20461;-77
2022/08/22 05:55:50;;;;;;;10.23;7.20;;;17.90;99.90;;;;;;5033054;28;20438;-77
2022/08/22 05:58:47;;;;;;;9.83;8.13;;;18.00;99.90;;;;;;5035449;28;20453;-78
2022/08/22 06:01:24;;;;;;;10.40;7.60;;;18.00;99.90;;;;;;5036220;28;20534;-78
2022/08/22 06:04:01;;;;;;;9.10;7.83;;;18.10;99.90;;;;;;5038305;28;20434;-79
2022/08/22 06:06:34;;;;;;;11.17;7.63;;;18.20;99.90;;;;;;5038322;28;20465;-79
2022/08/22 06:09:07;;;;;;;11.67;6.90;;;18.40;99.90;;;;;;5038418;28;20776;-79
2022/08/22 06:11:40;;;;;;;13.93;7.53;;;18.60;99.90;;;;;;5037181;28;20534;-78
2022/08/22 06:14:27;;;;;;;12.00;7.10;;;18.80;99.90;;;;;;5037739;28;20508;-78
2022/08/22 06:17:04;;;;;;;13.80;7.30;;;19.00;99.90;;;;;;5034363;28;20466;-78
2022/08/22 06:19:37;;;;;;;13.23;7.23;;;19.20;99.90;;;;;;5036610;28;20479;-78
2022/08/22 06:22:08;;;;;;;18.23;7.03;;;19.50;99.90;;;;;;5038760;28;20427;-78
2022/08/22 06:24:40;;;;;;;9.73;6.20;;;19.70;99.90;;;;;;5037412;28;20512;-78
2022/08/22 06:27:12;;;;;;;7.20;5.77;;;20.00;99.90;;;;;;5044359;28;20462;-78
2022/08/22 06:29:44;;;;;;;10.10;5.30;;;20.20;99.90;;;;;;5035619;28;20865;-79
2022/08/22 06:32:15;;;;;;;9.50;5.43;;;20.50;99.90;;;;;;5036464;28;20466;-78
2022/08/22 06:35:06;;;;;;;11.37;4.30;;;20.70;99.90;;;;;;5038264;28;20455;-79
2022/08/22 06:37:40;;;;;;;9.13;5.37;;;20.90;99.90;;;;;;5038121;28;20454;-78
2022/08/22 06:40:11;;;;;;;11.30;5.73;;;21.10;99.90;;;;;;5035108;28;20449;-78
2022/08/22 06:42:43;;;;;;;11.20;5.87;;;21.30;99.90;;;;;;5035282;28;20447;-77
2022/08/22 06:45:16;;;;;;;10.93;5.70;;;21.50;99.90;;;;;;5037333;28;20443;-77
2022/08/22 06:47:48;;;;;;;7.97;5.10;;;21.70;99.90;;;;;;5035243;28;20471;-78
2022/08/22 06:50:23;;;;;;;9.10;5.00;;;21.90;99.90;;;;;;5035491;28;20858;-77
2022/08/22 06:52:57;;;;;;;11.67;5.20;;;22.10;99.90;;;;;;5037212;28;20438;-78
2022/08/22 06:55:27;;;;;;;8.70;5.00;;;22.30;99.90;;;;;;5037584;28;20441;-77
2022/08/22 06:57:58;;;;;;;10.97;4.90;;;22.40;99.90;;;;;;5036357;28;20470;-78
2022/08/22 07:00:28;;;;;;;11.00;4.83;;;22.50;99.90;;;;;;5038359;28;20446;-78
2022/08/22 07:03:00;;;;;;;8.03;4.17;;;22.70;99.90;;;;;;5036670;28;20878;-79
2022/08/22 07:05:39;;;;;;;9.50;3.93;;;22.90;99.90;;;;;;5037714;28;20791;-78
2022/08/22 07:08:12;;;;;;;8.50;4.10;;;23.10;99.90;;;;;;5038575;28;20542;-79
2022/08/22 07:10:42;;;;;;;6.77;3.90;;;23.20;99.90;;;;;;5037307;28;20487;-78
2022/08/22 07:13:15;;;;;;;10.00;5.23;;;23.40;99.90;;;;;;5035881;28;20443;-78
2022/08/22 07:15:43;;;;;;;12.17;4.80;;;23.60;99.90;;;;;;5037555;28;20447;-78
2022/08/22 07:18:19;;;;;;;7.33;3.80;;;23.70;99.90;;;;;;5037886;28;20472;-79
2022/08/22 07:20:51;;;;;;;8.43;3.93;;;23.90;99.90;;;;;;5037507;28;20510;-79
2022/08/22 07:23:31;;;;;;;9.70;3.70;;;24.00;99.90;;;;;;5037643;28;20916;-78
2022/08/22 07:26:14;;;;;;;9.80;4.43;;;24.10;99.90;;;;;;5037865;28;20474;-79
2022/08/22 07:28:49;;;;;;;8.07;4.53;;;24.20;99.90;;;;;;5039664;28;20439;-78
2022/08/22 07:31:33;;;;;;;7.83;4.30;;;24.20;99.90;;;;;;5041779;28;20484;-79
2022/08/22 07:34:14;;;;;;;9.70;4.10;;;24.30;99.90;;;;;;5040007;28;20446;-80
2022/08/22 07:36:47;;;;;;;11.00;4.47;;;24.30;99.90;;;;;;5041724;28;20467;-79
2022/08/22 07:39:25;;;;;;;8.23;3.70;;;24.40;99.90;;;;;;5041861;28;20451;-79
2022/08/22 07:42:10;;;;;;;10.00;3.73;;;24.50;99.90;;;;;;5046115;28;20973;-79
2022/08/22 07:45:01;;;;;;;10.00;3.43;;;24.50;99.90;;;;;;5045092;28;20438;-80
2022/08/22 07:47:40;;;;;;;6.27;3.20;;;24.50;99.90;;;;;;5046114;28;20487;-80
2022/08/22 07:50:14;;;;;;;6.63;3.90;;;24.60;99.90;;;;;;5046705;28;20461;-79
2022/08/22 07:52:45;;;;;;;8.50;4.13;;;24.60;99.90;;;;;;5044175;28;20529;-79
2022/08/22 07:55:18;;;;;;;10.13;4.13;;;24.70;99.90;;;;;;5045868;28;20451;-79
2022/08/22 07:57:53;;;;;;;8.60;3.57;;;24.70;99.90;;;;;;5046058;28;20527;-78
2022/08/22 08:00:23;;;;;;;7.83;4.00;;;24.80;99.90;;;;;;5045195;28;20438;-80
2022/08/22 08:02:57;;;;;;;5.50;3.17;;;24.90;99.90;;;;;;5040124;28;20506;-80
2022/08/22 08:05:31;;;;;;;8.40;3.90;;;24.90;99.90;;;;;;5040754;28;20428;-80
2022/08/22 08:08:04;;;;;;;6.53;3.27;;;24.90;99.90;;;;;;5037417;28;20991;-78
2022/08/22 08:10:39;;;;;;;7.43;4.13;;;25.00;99.90;;;;;;5037805;28;20471;-79
2022/08/22 08:13:14;;;;;;;7.93;4.43;;;25.10;99.90;;;;;;5038524;28;20506;-79
2022/08/22 08:15:45;;;;;;;10.97;4.20;;;25.10;99.90;;;;;;5038498;28;20421;-79
2022/08/22 08:18:24;;;;;;;12.03;4.90;;;25.20;99.90;;;;;;5037614;28;20467;-79
2022/08/22 08:20:56;;;;;;;8.13;4.00;;;25.20;99.90;;;;;;5037607;28;20451;-79
2022/08/22 08:23:28;;;;;;;6.90;4.13;;;25.30;99.90;;;;;;5038858;28;20950;-80
2022/08/22 08:26:04;;;;;;;6.40;3.50;;;25.30;99.90;;;;;;5037252;28;20501;-78
2022/08/22 08:28:37;;;;;;;11.50;5.03;;;25.30;99.90;;;;;;5038702;28;20465;-79
2022/08/22 08:31:20;;;;;;;7.87;4.10;;;25.30;99.80;;;;;;5039384;28;20463;-80
2022/08/22 08:33:52;;;;;;;9.10;4.20;;;25.30;99.60;;;;;;5037800;28;20467;-80
2022/08/22 08:36:35;;;;;;;9.00;4.43;;;25.30;99.50;;;;;;5036963;28;20440;-78
2022/08/22 08:39:15;;;;;;;7.10;4.10;;;25.40;99.50;;;;;;5037555;28;20986;-79
2022/08/22 08:43:25;;;;;;;10.77;4.10;;;25.40;99.40;;;;;;5037794;28;20449;-80
2022/08/22 08:45:33;;;;;;;6.00;3.47;;;25.50;99.20;;;;;;5037633;28;20501;-79
2022/08/22 08:48:30;;;;;;;5.17;3.53;;;25.50;99.20;;;;;;5037857;28;20980;-79
2022/08/22 08:51:15;;;;;;;6.10;3.43;;;25.50;98.80;;;;;;5031772;28;20491;-81
2022/08/22 08:54:08;;;;;;;8.03;3.70;;;25.50;98.80;;;;;;5036425;28;21051;-80
2022/08/22 08:56:46;;;;;;;5.17;3.60;;;25.60;98.80;;;;;;5036414;28;21073;-79
2022/08/22 08:59:36;;;;;;;9.30;3.67;;;25.60;98.70;;;;;;5038133;28;20439;-79
2022/08/22 09:02:29;;;;;;;9.67;3.90;;;25.60;98.40;;;;;;5037465;28;20443;-78
2022/08/22 09:05:49;;;;;;;4.20;2.70;;;25.70;98.50;;;;;;5037527;28;20411;-79
2022/08/22 09:08:50;;;;;;;6.33;3.13;;;25.70;98.20;;;;;;5037136;28;20545;-80
2022/08/22 09:12:01;;;;;;;10.87;4.37;;;25.80;98.00;;;;;;5041284;28;20493;-80
2022/08/22 09:15:07;;;;;;;5.93;3.33;;;25.80;97.90;;;;;;5038017;28;20812;-80
2022/08/22 09:18:04;;;;;;;7.50;3.77;;;25.90;97.70;;;;;;5037440;28;20542;-81
2022/08/22 09:21:18;;;;;;;8.23;3.80;;;25.90;97.50;;;;;;5039590;28;20423;-80
2022/08/22 09:25:01;;;;;;;6.20;3.80;;;25.90;97.20;;;;;;4982235;28;20471;-80
2022/08/22 09:27:37;;;;;;;7.90;4.10;;;25.90;97.10;;;;;;5036994;28;20558;-80
2022/08/22 09:30:11;;;;;;;4.57;2.73;;;25.90;97.20;;;;;;5038347;28;20490;-80
2022/08/22 09:32:54;;;;;;;5.60;3.20;;;26.00;97.10;;;;;;5037582;28;20478;-81
2022/08/22 09:35:30;;;;;;;6.53;3.20;;;26.10;97.10;;;;;;5038814;28;20450;-81
2022/08/22 09:38:13;;;;;;;6.57;3.17;;;26.20;97.00;;;;;;5038267;28;20839;-79
2022/08/22 09:40:50;;;;;;;5.63;3.10;;;26.30;96.70;;;;;;5036612;28;20438;-80
2022/08/22 09:43:21;;;;;;;11.57;3.83;;;26.30;96.40;;;;;;5037857;28;20446;-79
2022/08/22 09:46:00;;;;;;;7.10;3.27;;;26.40;96.30;;;;;;5037424;28;20447;-80
2022/08/22 09:48:46;;;;;;;4.80;3.50;;;26.40;96.30;;;;;;5037885;28;20493;-79
2022/08/22 09:51:25;;;;;;;9.80;4.37;;;26.50;96.00;;;;;;5038228;28;20819;-79
2022/08/22 09:54:14;;;;;;;6.63;3.60;;;26.50;95.80;;;;;;5039268;28;20423;-79
2022/08/22 09:56:57;;;;;;;6.83;3.90;;;26.50;95.60;;;;;;5039661;28;20463;-81
2022/08/22 09:59:48;;;;;;;7.63;3.80;;;26.50;95.50;;;;;;5036549;28;20522;-80
2022/08/22 10:02:29;;;;;;;7.53;3.23;;;26.50;95.40;;;;;;5037945;28;20446;-79
2022/08/22 10:05:07;;;;;;;4.90;3.37;;;26.50;95.40;;;;;;5038014;28;20505;-80
2022/08/22 10:08:03;;;;;;;8.67;3.43;;;26.50;95.20;;;;;;5037932;28;21058;-80
2022/08/22 10:10:50;;;;;;;8.80;3.57;;;26.50;95.00;;;;;;5037242;28;20525;-79
2022/08/22 10:13:33;;;;;;;7.53;3.93;;;26.60;94.90;;;;;;5037214;28;20466;-79
2022/08/22 10:16:15;;;;;;;7.70;3.40;;;26.50;94.90;;;;;;5037112;28;20442;-80
2022/08/22 10:18:52;;;;;;;5.10;3.37;;;26.50;94.90;;;;;;5036082;28;20482;-78
2022/08/22 10:21:37;;;;;;;5.60;3.30;;;26.60;94.80;;;;;;5037118;28;20434;-79
2022/08/22 10:24:17;;;;;;;7.00;3.50;;;26.70;94.70;;;;;;5035406;28;20459;-80
2022/08/22 10:26:56;;;;;;;6.37;3.60;;;26.70;94.50;;;;;;5036198;28;20458;-79
2022/08/22 10:29:52;;;;;;;8.13;4.17;;;26.80;94.30;;;;;;5037190;28;20422;-80
2022/08/22 10:32:30;;;;;;;6.87;3.37;;;26.80;94.00;;;;;;5035983;28;20465;-79
2022/08/22 10:35:16;;;;;;;6.30;3.83;;;26.80;94.10;;;;;;5036675;28;20465;-80
2022/08/22 10:37:54;;;;;;;6.00;4.13;;;26.90;93.80;;;;;;5037626;28;20495;-79
2022/08/22 10:40:29;;;;;;;5.80;3.90;;;26.90;93.70;;;;;;5036929;28;20463;-79
2022/08/22 10:43:02;;;;;;;6.20;3.57;;;26.90;93.50;;;;;;5041088;28;20431;-80
2022/08/22 10:45:34;;;;;;;9.33;3.67;;;26.90;93.30;;;;;;5039216;28;20442;-78
2022/08/22 10:48:33;;;;;;;5.30;4.07;;;26.90;93.20;;;;;;5037416;28;20968;-80
2022/08/22 10:51:35;;;;;;;9.13;3.67;;;27.00;92.90;;;;;;5020459;28;20561;-79
2022/08/22 10:54:37;;;;;;;6.10;3.70;;;27.00;92.90;;;;;;5038871;28;20445;-82
2022/08/22 10:57:17;;;;;;;4.87;3.30;;;27.10;92.70;;;;;;5039422;28;20462;-78
2022/08/22 10:59:56;;;;;;;6.10;3.50;;;27.10;92.60;;;;;;5037518;28;20485;-79
2022/08/22 11:02:54;;;;;;;5.20;3.97;;;27.10;92.50;;;;;;5040395;28;20476;-79
2022/08/22 11:05:44;;;;;;;5.60;3.77;;;27.10;92.20;;;;;;5040610;28;20454;-80
2022/08/22 11:08:48;;;;;;;6.00;3.23;;;27.10;92.20;;;;;;5042896;28;21030;-80
2022/08/22 11:11:28;;;;;;;5.23;3.50;;;27.00;92.30;;;;;;5042920;28;20473;-79
2022/08/22 11:14:36;;;;;;;4.60;3.67;;;27.00;92.60;;;;;;5043457;28;20835;-81
2022/08/22 11:17:22;;;;;;;5.33;3.87;;;27.00;92.60;;;;;;5042286;28;20515;-79
2022/08/22 11:20:12;;;;;;;5.10;3.80;;;27.00;92.30;;;;;;5043028;28;20451;-79
2022/08/22 11:22:47;;;;;;;4.77;4.27;;;27.00;92.20;;;;;;5041855;28;20435;-79
2022/08/22 11:25:28;;;;;;;5.03;3.50;;;27.00;91.90;;;;;;5039462;28;20862;-79
2022/08/22 11:28:32;;;;;;;4.50;3.53;;;26.90;91.30;;;;;;5040298;28;20474;-78
2022/08/22 11:31:08;;;;;;;5.23;4.00;;;26.90;91.30;;;;;;5041979;28;20898;-79
2022/08/22 11:33:42;;;;;;;4.53;3.10;;;26.90;91.30;;;;;;5040125;28;20443;-79
2022/08/22 11:36:27;;;;;;;6.50;3.87;;;26.90;91.20;;;;;;5041407;28;20478;-78
2022/08/22 11:39:11;;;;;;;3.63;3.07;;;26.90;91.00;;;;;;5041534;28;20431;-79
2022/08/22 11:41:54;;;;;;;4.90;3.60;;;26.80;90.80;;;;;;5040948;28;20514;-78
2022/08/22 11:44:31;;;;;;;4.33;3.20;;;26.80;90.70;;;;;;5041293;28;20849;-79
2022/08/22 11:47:10;;;;;;;5.70;4.00;;;26.80;90.60;;;;;;5038975;28;20518;-79
2022/08/22 11:49:50;;;;;;;6.83;3.73;;;26.80;90.60;;;;;;5039903;28;20459;-79
2022/08/22 11:52:53;;;;;;;5.30;3.97;;;26.70;90.50;;;;;;5038882;28;20538;-79
2022/08/22 11:55:27;;;;;;;5.50;4.87;;;26.80;90.10;;;;;;5016795;28;20846;-78
2022/08/22 11:58:19;;;;;;;4.37;3.97;;;26.70;90.10;;;;;;5039951;28;20482;-79
2022/08/22 12:01:01;;;;;;;5.67;4.10;;;26.70;90.20;;;;;;5039308;28;20801;-78
2022/08/22 12:03:47;;;;;;;5.07;3.83;;;26.70;90.20;;;;;;5038229;28;20498;-78
2022/08/22 12:06:59;;;;;;;6.97;3.13;;;26.80;90.30;;;;;;5040061;28;20424;-79
2022/08/22 12:09:39;;;;;;;4.50;3.47;;;26.80;90.30;;;;;;4983422;28;20457;-80
2022/08/22 12:12:29;;;;;;;4.33;3.47;;;26.80;90.50;;;;;;5032479;28;20462;-79
2022/08/22 12:15:04;;;;;;;4.73;3.10;;;26.90;90.30;;;;;;5039270;28;20446;-79
2022/08/22 12:18:11;;;;;;;4.00;3.20;;;26.90;90.30;;;;;;5040342;28;20837;-79
2022/08/22 12:21:09;;;;;;;4.40;3.97;;;26.90;90.20;;;;;;5038945;28;20447;-79
2022/08/22 12:24:07;;;;;;;4.80;3.47;;;26.90;90.20;;;;;;5040269;28;20869;-78
2022/08/22 12:27:02;;;;;;;4.07;3.40;;;27.00;89.80;;;;;;5039443;28;20463;-79
2022/08/22 12:29:42;;;;;;;5.93;3.70;;;27.00;89.60;;;;;;5040333;28;20431;-79
2022/08/22 12:32:51;;;;;;;7.10;4.30;;;27.00;89.40;;;;;;5038983;28;20503;-79
2022/08/22 12:35:32;;;;;;;4.73;3.10;;;27.00;89.50;;;;;;5034251;28;20534;-80
2022/08/22 12:38:21;;;;;;;4.67;3.47;;;27.00;89.10;;;;;;5037021;28;20474;-80
2022/08/22 12:41:18;;;;;;;4.50;3.20;;;27.00;88.90;;;;;;5040116;28;20423;-78
2022/08/22 12:44:27;;;;;;;5.10;3.50;;;27.00;88.70;;;;;;5038350;28;20423;-77
2022/08/22 12:47:22;;;;;;;4.07;3.43;;;27.00;88.80;;;;;;5036051;28;20474;-79
2022/08/22 12:50:12;;;;;;;3.77;3.30;;;27.00;88.50;;;;;;5037388;28;20439;-78
2022/08/22 12:53:09;;;;;;;3.70;3.07;;;27.00;88.30;;;;;;5038647;28;20845;-78
2022/08/22 12:55:53;;;;;;;6.00;3.10;;;27.10;87.60;;;;;;5035422;28;20493;-79
2022/08/22 12:58:30;;;;;;;4.20;3.07;;;27.10;87.50;;;;;;5038071;28;20525;-79
2022/08/22 13:01:05;;;;;;;3.67;3.37;;;27.10;87.20;;;;;;5040238;28;20776;-78
2022/08/22 13:03:40;;;;;;;8.30;4.50;;;27.10;86.80;;;;;;5039040;28;20427;-78
2022/08/22 13:06:47;;;;;;;4.83;3.20;;;27.10;86.40;;;;;;5038324;28;20889;-77
2022/08/22 13:09:25;;;;;;;5.53;3.77;;;27.10;86.60;;;;;;5037716;28;20454;-77
2022/08/22 13:11:59;;;;;;;3.73;2.90;;;27.20;86.20;;;;;;5035437;28;20494;-77
2022/08/22 13:14:32;;;;;;;4.00;3.00;;;27.10;86.00;;;;;;5035351;28;20444;-77
2022/08/22 13:17:06;;;;;;;3.60;3.13;;;27.20;85.90;;;;;;5034890;28;20482;-78
2022/08/22 13:20:01;;;;;;;3.40;2.80;;;27.20;85.80;;;;;;5037390;28;20439;-78
2022/08/22 13:22:33;;;;;;;7.30;3.67;;;27.20;86.20;;;;;;5035318;28;20435;-78
2022/08/22 13:25:08;;;;;;;3.30;3.00;;;27.30;85.80;;;;;;5036940;28;20592;-78
2022/08/22 13:27:42;;;;;;;3.33;2.90;;;27.40;84.80;;;;;;5037024;28;20482;-78
2022/08/22 13:30:22;;;;;;;4.87;3.50;;;27.40;84.90;;;;;;5037107;28;20462;-77
2022/08/22 13:32:54;;;;;;;6.43;2.73;;;27.50;84.90;;;;;;5037568;28;20951;-77
2022/08/22 13:35:30;;;;;;;5.20;3.43;;;27.50;84.20;;;;;;5034833;28;20462;-77
2022/08/22 13:38:06;;;;;;;4.23;3.30;;;27.60;84.30;;;;;;5035793;28;20474;-78
2022/08/22 13:40:46;;;;;;;4.97;3.07;;;27.60;84.20;;;;;;5037493;28;20423;-78
2022/08/22 13:43:20;;;;;;;4.27;2.97;;;27.60;83.80;;;;;;5035879;28;20431;-77
2022/08/22 13:45:54;;;;;;;6.90;3.73;;;27.60;83.50;;;;;;5038388;28;20537;-76
2022/08/22 13:48:26;;;;;;;6.50;3.17;;;27.60;84.40;;;;;;5037567;28;20497;-77
2022/08/22 13:51:05;;;;;;;4.77;3.27;;;27.60;84.10;;;;;;5036600;28;20423;-78
2022/08/22 13:53:39;;;;;;;4.63;3.00;;;27.60;83.70;;;;;;5035821;28;20843;-78
2022/08/22 13:56:21;;;;;;;3.77;2.60;;;27.60;83.50;;;;;;5035223;28;20558;-78
2022/08/22 13:58:55;;;;;;;5.00;3.30;;;27.50;83.10;;;;;;5039508;28;20419;-76
2022/08/22 14:01:37;;;;;;;4.50;3.13;;;27.40;83.20;;;;;;5037064;28;20793;-78
2022/08/22 14:04:16;;;;;;;3.47;3.07;;;27.40;83.10;;;;;;5035749;28;20419;-77